createdAt,value
2023-04-02T00:00:08.844Z,97.05
2023-04-02T00:01:08.832Z,98.37
2023-04-02T00:02:08.811Z,98.58
2023-04-02T00:03:08.925Z,98.85
2023-04-02T00:04:08.812Z,99.04
2023-04-02T00:05:08.739Z,99.96
2023-04-02T00:06:08.754Z,98.25
2023-04-02T00:07:08.672Z,97.58
2023-04-02T00:08:08.640Z,99.11
2023-04-02T00:09:08.798Z,98.59
2023-04-02T00:10:08.593Z,98.10
2023-04-02T00:11:08.561Z,98.29
2023-04-02T00:12:08.557Z,98.66
2023-04-02T00:13:08.553Z,99.20
2023-04-02T00:14:08.596Z,99.10
2023-04-02T00:15:08.482Z,97.70
2023-04-02T00:16:08.558Z,97.74
2023-04-02T00:17:08.447Z,97.37
2023-04-02T00:18:08.433Z,97.49
2023-04-02T00:19:08.793Z,96.92
2023-04-02T00:20:08.371Z,98.08
2023-04-02T00:21:08.363Z,98.59
2023-04-02T00:22:08.320Z,95.84
2023-04-02T00:23:08.325Z,96.92
2023-04-02T00:24:08.293Z,96.36
2023-04-02T00:25:08.273Z,96.37
2023-04-02T00:26:08.268Z,98.17
2023-04-02T00:27:08.230Z,97.86
2023-04-02T00:28:08.216Z,98.97
2023-04-02T00:29:08.184Z,99.04
2023-04-02T00:30:08.158Z,99.04
2023-04-02T00:31:08.123Z,99.74
2023-04-02T00:32:08.214Z,98.52
2023-04-02T00:33:08.134Z,97.83
2023-04-02T00:34:08.136Z,99.69
2023-04-02T00:35:08.121Z,105.51
2023-04-02T00:36:08.274Z,100.33
2023-04-02T00:37:08.103Z,102.29
2023-04-02T00:38:08.079Z,101.67
2023-04-02T00:39:08.089Z,101.35
2023-04-02T00:40:08.083Z,100.89
2023-04-02T00:41:08.066Z,100.50
2023-04-02T00:42:08.047Z,103.11
2023-04-02T00:43:08.018Z,102.64
2023-04-02T00:44:08.075Z,101.46
2023-04-02T00:45:08.018Z,100.63
2023-04-02T00:46:08.085Z,101.15
2023-04-02T00:47:08.018Z,99.57
2023-04-02T00:48:08.016Z,101.09
2023-04-02T00:49:07.978Z,102.04
2023-04-02T00:50:07.945Z,102.45
2023-04-02T00:51:07.910Z,98.59
2023-04-02T00:52:08.033Z,98.79
2023-04-02T00:53:07.888Z,99.69
2023-04-02T00:54:07.887Z,99.81
2023-04-02T00:55:07.839Z,99.83
2023-04-02T00:56:07.798Z,99.95
2023-04-02T00:57:07.807Z,100.22
2023-04-02T00:58:07.750Z,102.16
2023-04-02T00:59:07.748Z,102.57
2023-04-02T01:00:07.821Z,96.45
2023-04-02T01:01:07.766Z,97.91
2023-04-02T01:02:07.715Z,100.83
2023-04-02T01:03:07.797Z,100.57
2023-04-02T01:04:07.624Z,97.98
2023-04-02T01:05:07.588Z,97.23
2023-04-02T01:06:07.574Z,97.13
2023-04-02T01:07:07.569Z,99.37
2023-04-02T01:08:07.524Z,98.61
2023-04-02T01:09:07.527Z,100.22
2023-04-02T01:10:07.467Z,98.84
2023-04-02T01:11:07.556Z,96.59
2023-04-02T01:12:07.462Z,97.77
2023-04-02T01:13:07.404Z,99.82
2023-04-02T01:14:07.356Z,96.94
2023-04-02T01:15:07.434Z,94.25
2023-04-02T01:16:07.362Z,96.83
2023-04-02T01:17:07.346Z,97.01
2023-04-02T01:18:07.411Z,97.20
2023-04-02T01:19:07.245Z,98.04
2023-04-02T01:20:07.238Z,96.88
2023-04-02T01:21:07.207Z,97.11
2023-04-02T01:22:07.247Z,93.92
2023-04-02T01:23:07.141Z,95.23
2023-04-02T01:24:07.117Z,95.87
2023-04-02T01:25:07.116Z,97.93
2023-04-02T01:26:07.119Z,96.31
2023-04-02T01:27:07.125Z,98.29
2023-04-02T01:28:07.035Z,93.30
2023-04-02T01:29:07.017Z,94.09
2023-04-02T01:30:06.998Z,97.45
2023-04-02T01:31:06.980Z,99.64
2023-04-02T01:32:06.968Z,95.08
2023-04-02T01:33:07.223Z,96.56
2023-04-02T01:34:06.916Z,95.85
2023-04-02T01:35:06.901Z,96.08
2023-04-02T01:36:06.945Z,97.25
2023-04-02T01:37:06.859Z,95.80
2023-04-02T01:38:06.830Z,98.06
2023-04-02T01:39:06.809Z,96.10
2023-04-02T01:40:06.807Z,96.28
2023-04-02T01:41:06.788Z,98.80
2023-04-02T01:42:06.745Z,98.89
2023-04-02T01:43:06.754Z,95.84
2023-04-02T01:44:06.735Z,95.98
2023-04-02T01:45:06.745Z,96.44
2023-04-02T01:46:06.674Z,96.98
2023-04-02T01:47:06.631Z,96.70
2023-04-02T01:48:06.624Z,96.74
2023-04-02T01:49:06.592Z,96.79
2023-04-02T01:50:06.581Z,94.27
2023-04-02T01:51:06.549Z,94.60
2023-04-02T01:52:06.559Z,95.05
2023-04-02T01:53:06.515Z,95.21
2023-04-02T01:54:06.457Z,94.95
2023-04-02T01:55:06.446Z,95.02
2023-04-02T01:56:06.417Z,94.62
2023-04-02T01:57:06.392Z,93.37
2023-04-02T01:58:06.360Z,96.43
2023-04-02T01:59:06.344Z,92.16
2023-04-02T02:00:06.358Z,93.30
2023-04-02T02:01:06.307Z,94.24
2023-04-02T02:02:06.310Z,93.07
2023-04-02T02:03:06.281Z,92.65
2023-04-02T02:04:06.233Z,92.24
2023-04-02T02:05:06.215Z,92.36
2023-04-02T02:06:06.203Z,92.81
2023-04-02T02:07:06.196Z,93.40
2023-04-02T02:08:06.163Z,92.41
2023-04-02T02:09:06.136Z,94.39
2023-04-02T02:10:06.141Z,92.41
2023-04-02T02:11:06.803Z,92.06
2023-04-02T02:12:06.054Z,91.97
2023-04-02T02:13:06.035Z,89.73
2023-04-02T02:14:06.028Z,90.01
2023-04-02T02:15:06.005Z,90.29
2023-04-02T02:16:06.063Z,90.83
2023-04-02T02:17:05.987Z,93.28
2023-04-02T02:18:05.951Z,93.33
2023-04-02T02:19:05.955Z,91.87
2023-04-02T02:20:05.955Z,92.71
2023-04-02T02:21:05.875Z,92.92
2023-04-02T02:22:05.851Z,93.05
2023-04-02T02:23:05.846Z,93.64
2023-04-02T02:24:05.819Z,93.08
2023-04-02T02:25:05.792Z,95.07
2023-04-02T02:26:05.790Z,93.88
2023-04-02T02:27:05.775Z,93.43
2023-04-02T02:28:05.724Z,90.44
2023-04-02T02:29:05.691Z,95.30
2023-04-02T02:30:05.700Z,94.87
2023-04-02T02:31:05.781Z,95.62
2023-04-02T02:32:05.712Z,97.13
2023-04-02T02:33:05.623Z,97.69
2023-04-02T02:34:05.618Z,93.26
2023-04-02T02:35:05.603Z,94.91
2023-04-02T02:36:05.560Z,92.46
2023-04-02T02:37:05.527Z,87.17
2023-04-02T02:38:05.503Z,88.04
2023-04-02T02:39:05.463Z,86.19
2023-04-02T02:40:05.445Z,82.98
2023-04-02T02:41:05.431Z,80.15
2023-04-02T02:42:05.400Z,77.31
2023-04-02T02:43:05.406Z,73.28
2023-04-02T02:44:05.381Z,72.72
2023-04-02T02:45:05.370Z,70.87
2023-04-02T02:46:05.445Z,70.95
2023-04-02T02:47:05.313Z,68.06
2023-04-02T02:48:05.355Z,67.37
2023-04-02T02:49:05.279Z,61.23
2023-04-02T02:50:05.256Z,52.04
2023-04-02T02:51:05.241Z,51.71
2023-04-02T02:52:05.228Z,50.42
2023-04-02T02:53:05.220Z,50.80
2023-04-02T02:54:05.210Z,46.23
2023-04-02T02:55:05.191Z,39.75
2023-04-02T02:56:05.194Z,39.93
2023-04-02T02:57:05.237Z,40.22
2023-04-02T02:58:05.162Z,38.21
2023-04-02T02:59:05.133Z,36.86
2023-04-02T03:00:05.164Z,27.51
2023-04-02T03:01:05.140Z,25.21
2023-04-02T03:02:05.142Z,27.22
2023-04-02T03:03:05.145Z,25.00
2023-04-02T03:04:05.127Z,27.06
2023-04-02T03:05:05.062Z,28.14
2023-04-02T03:06:05.064Z,25.84
2023-04-02T03:07:05.062Z,27.68
2023-04-02T03:08:05.033Z,28.59
2023-04-02T03:09:05.036Z,27.89
2023-04-02T03:10:05.010Z,29.48
2023-04-02T03:11:05.228Z,24.85
2023-04-02T03:12:04.969Z,25.00
2023-04-02T03:13:04.965Z,26.32
2023-04-02T03:14:04.945Z,27.45
2023-04-02T03:15:04.940Z,25.00
2023-04-02T03:16:04.955Z,26.32
2023-04-02T03:17:04.885Z,25.60
2023-04-02T03:18:04.974Z,27.77
2023-04-02T03:19:04.900Z,29.67
2023-04-02T03:20:04.849Z,25.00
2023-04-02T03:21:04.908Z,26.23
2023-04-02T03:22:04.829Z,30.67
2023-04-02T03:23:04.829Z,25.27
2023-04-02T03:24:04.803Z,27.65
2023-04-02T03:25:04.818Z,28.03
2023-04-02T03:26:04.830Z,31.14
2023-04-02T03:27:04.762Z,27.39
2023-04-02T03:28:04.745Z,31.59
2023-04-02T03:29:04.776Z,25.92
2023-04-02T03:30:04.762Z,28.60
2023-04-02T03:31:04.821Z,29.56
2023-04-02T03:32:04.788Z,31.19
2023-04-02T03:33:04.807Z,31.76
2023-04-02T03:34:04.800Z,29.75
2023-04-02T03:35:04.842Z,31.18
2023-04-02T03:36:04.842Z,32.04
2023-04-02T03:37:04.833Z,25.00
2023-04-02T03:38:04.831Z,30.04
2023-04-02T03:39:04.824Z,26.79
2023-04-02T03:40:04.816Z,32.58
2023-04-02T03:41:04.840Z,29.30
2023-04-02T03:42:04.874Z,31.70
2023-04-02T03:43:04.823Z,32.40
2023-04-02T03:44:04.818Z,35.56
2023-04-02T03:45:04.838Z,34.40
2023-04-02T03:46:05.007Z,35.96
2023-04-02T03:47:04.802Z,38.04
2023-04-02T03:48:04.841Z,40.18
2023-04-02T03:49:04.801Z,42.49
2023-04-02T03:50:04.794Z,42.11
2023-04-02T03:51:04.822Z,44.03
2023-04-02T03:52:04.752Z,44.18
2023-04-02T03:53:04.741Z,45.49
2023-04-02T03:54:04.742Z,44.59
2023-04-02T03:55:04.723Z,46.29
2023-04-02T03:56:04.715Z,46.76
2023-04-02T03:57:04.846Z,47.93
2023-04-02T03:58:04.757Z,44.46
2023-04-02T03:59:04.678Z,49.49
2023-04-02T04:00:04.679Z,51.44
2023-04-02T04:01:04.721Z,48.68
2023-04-02T04:02:04.689Z,46.17
2023-04-02T04:03:04.652Z,42.72
2023-04-02T04:04:04.668Z,36.34
2023-04-02T04:05:04.642Z,34.66
2023-04-02T04:06:04.629Z,36.92
2023-04-02T04:07:04.649Z,34.00
2023-04-02T04:08:04.626Z,34.58
2023-04-02T04:09:04.617Z,30.98
2023-04-02T04:10:04.627Z,30.66
2023-04-02T04:11:04.623Z,26.23
2023-04-02T04:12:04.620Z,25.21
2023-04-02T04:13:04.615Z,28.57
2023-04-02T04:14:04.652Z,30.75
2023-04-02T04:15:04.645Z,25.00
2023-04-02T04:16:04.897Z,26.59
2023-04-02T04:17:04.707Z,25.40
2023-04-02T04:18:04.712Z,25.00
2023-04-02T04:19:04.695Z,27.69
2023-04-02T04:20:04.714Z,26.65
2023-04-02T04:21:04.714Z,25.00
2023-04-02T04:22:04.692Z,25.22
2023-04-02T04:23:04.703Z,25.32
2023-04-02T04:24:04.670Z,21.36
2023-04-02T04:25:04.675Z,20.25
2023-04-02T04:26:04.641Z,19.82
2023-04-02T04:27:04.652Z,25.66
2023-04-02T04:28:04.587Z,29.32
2023-04-02T04:29:04.607Z,28.61
2023-04-02T04:30:04.562Z,27.70
2023-04-02T04:31:04.581Z,30.17
2023-04-02T04:32:04.618Z,33.98
2023-04-02T04:33:04.572Z,31.79
2023-04-02T04:34:04.513Z,31.11
2023-04-02T04:35:04.503Z,35.32
2023-04-02T04:36:04.498Z,32.63
2023-04-02T04:37:04.492Z,38.67
2023-04-02T04:38:04.521Z,37.16
2023-04-02T04:39:04.453Z,39.04
2023-04-02T04:40:04.426Z,38.80
2023-04-02T04:41:04.530Z,41.68
2023-04-02T04:42:04.410Z,42.01
2023-04-02T04:43:04.416Z,43.99
2023-04-02T04:44:04.378Z,48.59
2023-04-02T04:45:04.391Z,48.80
2023-04-02T04:46:04.363Z,51.28
2023-04-02T04:47:04.410Z,51.43
2023-04-02T04:48:04.358Z,55.54
2023-04-02T04:49:04.303Z,54.72
2023-04-02T04:50:04.292Z,54.97
2023-04-02T04:51:04.326Z,58.95
2023-04-02T04:52:04.290Z,59.48
2023-04-02T04:53:04.297Z,59.21
2023-04-02T04:54:04.271Z,60.48
2023-04-02T04:55:04.274Z,59.99
2023-04-02T04:56:18.223Z,64.54
2023-04-02T04:57:05.343Z,64.65
2023-04-02T04:58:04.236Z,64.64
2023-04-02T04:59:04.221Z,65.88
2023-04-02T05:00:04.220Z,66.76
2023-04-02T05:01:04.217Z,66.30
2023-04-02T05:02:04.175Z,68.75
2023-04-02T05:03:04.195Z,67.96
2023-04-02T05:04:04.154Z,70.12
2023-04-02T05:05:04.155Z,70.06
2023-04-02T05:06:04.100Z,71.04
2023-04-02T05:07:04.156Z,68.57
2023-04-02T05:08:04.087Z,66.60
2023-04-02T05:09:04.051Z,61.25
2023-04-02T05:10:04.048Z,61.57
2023-04-02T05:11:04.030Z,61.82
2023-04-02T05:12:04.034Z,59.71
2023-04-02T05:13:04.012Z,59.80
2023-04-02T05:14:03.997Z,59.93
2023-04-02T05:15:03.973Z,59.79
2023-04-02T05:16:04.028Z,60.48
2023-04-02T05:17:03.940Z,61.71
2023-04-02T05:18:03.963Z,62.98
2023-04-02T05:19:03.960Z,62.72
2023-04-02T05:20:03.906Z,57.79
2023-04-02T05:21:03.907Z,65.12
2023-04-02T05:22:03.926Z,65.89
2023-04-02T05:23:03.879Z,62.09
2023-04-02T05:24:03.886Z,63.91
2023-04-02T05:25:03.863Z,61.78
2023-04-02T05:26:03.854Z,67.89
2023-04-02T05:27:03.871Z,66.38
2023-04-02T05:28:03.843Z,66.98
2023-04-02T05:29:03.839Z,69.95
2023-04-02T05:30:03.825Z,71.64
2023-04-02T05:31:04.457Z,70.81
2023-04-02T05:32:03.835Z,68.65
2023-04-02T05:33:03.843Z,74.76
2023-04-02T05:34:03.790Z,66.59
2023-04-02T05:35:03.806Z,74.24
2023-04-02T05:36:03.823Z,73.91
2023-04-02T05:37:05.723Z,77.64
2023-04-02T05:38:03.734Z,77.10
2023-04-02T05:39:03.716Z,77.81
2023-04-02T05:40:03.700Z,78.86
2023-04-02T05:41:03.681Z,78.43
2023-04-02T05:42:03.679Z,82.90
2023-04-02T05:43:03.643Z,80.16
2023-04-02T05:44:03.639Z,78.24
2023-04-02T05:45:03.620Z,79.22
2023-04-02T05:46:03.604Z,79.54
2023-04-02T05:47:03.595Z,80.23
2023-04-02T05:48:03.635Z,81.93
2023-04-02T05:49:03.590Z,84.71
2023-04-02T05:50:03.577Z,85.40
2023-04-02T05:51:03.532Z,91.03
2023-04-02T05:52:03.532Z,86.99
2023-04-02T05:53:03.484Z,87.98
2023-04-02T05:54:03.480Z,87.35
2023-04-02T05:55:03.455Z,85.53
2023-04-02T05:56:03.457Z,83.19
2023-04-02T05:57:03.490Z,86.70
2023-04-02T05:58:29.413Z,85.66
2023-04-02T05:59:04.389Z,85.42
2023-04-02T06:00:03.376Z,85.65
2023-04-02T06:01:03.360Z,84.01
2023-04-02T06:02:03.571Z,85.14
2023-04-02T06:03:03.434Z,80.59
2023-04-02T06:04:03.379Z,81.71
2023-04-02T06:05:03.344Z,79.08
2023-04-02T06:06:03.324Z,78.46
2023-04-02T06:07:03.347Z,77.72
2023-04-02T06:08:03.317Z,80.46
2023-04-02T06:09:03.286Z,76.76
2023-04-02T06:10:03.307Z,76.47
2023-04-02T06:11:03.269Z,73.33
2023-04-02T06:12:03.244Z,72.76
2023-04-02T06:13:03.291Z,71.01
2023-04-02T06:14:03.222Z,71.18
2023-04-02T06:15:03.221Z,71.49
2023-04-02T06:16:03.270Z,71.08
2023-04-02T06:17:03.271Z,72.59
2023-04-02T06:18:03.309Z,73.09
2023-04-02T06:19:03.200Z,74.57
2023-04-02T06:20:03.177Z,75.89
2023-04-02T06:21:03.156Z,72.17
2023-04-02T06:22:03.162Z,74.00
2023-04-02T06:23:03.219Z,76.04
2023-04-02T06:24:03.126Z,73.42
2023-04-02T06:25:03.127Z,76.47
2023-04-02T06:26:03.192Z,74.01
2023-04-02T06:27:03.103Z,75.19
2023-04-02T06:28:03.112Z,77.07
2023-04-02T06:29:03.121Z,78.89
2023-04-02T06:30:03.087Z,76.94
2023-04-02T06:31:03.082Z,76.64
2023-04-02T06:32:03.073Z,78.00
2023-04-02T06:33:03.173Z,80.63
2023-04-02T06:34:03.036Z,79.14
2023-04-02T06:35:03.019Z,81.36
2023-04-02T06:36:03.065Z,81.80
2023-04-02T06:37:02.982Z,82.65
2023-04-02T06:38:03.232Z,81.46
2023-04-02T06:39:02.996Z,81.78
2023-04-02T06:40:02.961Z,83.06
2023-04-02T06:41:02.950Z,82.47
2023-04-02T06:42:02.979Z,84.48
2023-04-02T06:43:02.948Z,84.18
2023-04-02T06:44:03.042Z,84.05
2023-04-02T06:45:02.945Z,82.50
2023-04-02T06:46:02.952Z,81.67
2023-04-02T06:47:02.976Z,79.22
2023-04-02T06:48:02.961Z,77.32
2023-04-02T06:49:02.902Z,73.75
2023-04-02T06:50:02.865Z,72.52
2023-04-02T06:51:02.837Z,69.42
2023-04-02T06:52:02.846Z,69.09
2023-04-02T06:53:02.843Z,64.42
2023-04-02T06:54:02.819Z,63.19
2023-04-02T06:55:02.851Z,65.59
2023-04-02T06:56:02.810Z,62.21
2023-04-02T06:57:02.842Z,62.75
2023-04-02T06:58:02.792Z,62.62
2023-04-02T06:59:02.776Z,62.01
2023-04-02T07:00:02.757Z,57.37
2023-04-02T07:01:02.798Z,56.27
2023-04-02T07:02:02.763Z,56.76
2023-04-02T07:03:02.832Z,58.96
2023-04-02T07:04:02.696Z,62.90
2023-04-02T07:05:02.697Z,57.56
2023-04-02T07:06:02.656Z,55.04
2023-04-02T07:07:02.656Z,52.89
2023-04-02T07:08:02.634Z,53.55
2023-04-02T07:09:02.628Z,48.84
2023-04-02T07:10:02.648Z,46.26
2023-04-02T07:11:02.624Z,41.13
2023-04-02T07:12:02.609Z,36.41
2023-04-02T07:13:02.633Z,38.73
2023-04-02T07:14:02.585Z,31.10
2023-04-02T07:15:02.608Z,31.17
2023-04-02T07:16:02.645Z,30.60
2023-04-02T07:17:02.579Z,27.79
2023-04-02T07:18:02.619Z,25.00
2023-04-02T07:19:02.548Z,26.68
2023-04-02T07:20:02.566Z,26.23
2023-04-02T07:21:02.539Z,28.09
2023-04-02T07:22:02.527Z,25.62
2023-04-02T07:23:02.526Z,25.86
2023-04-02T07:24:02.534Z,26.76
2023-04-02T07:25:02.516Z,29.53
2023-04-02T07:26:02.484Z,25.00
2023-04-02T07:27:02.472Z,28.18
2023-04-02T07:28:02.462Z,29.40
2023-04-02T07:29:02.458Z,32.95
2023-04-02T07:30:02.453Z,26.90
2023-04-02T07:31:02.512Z,29.52
2023-04-02T07:32:02.431Z,28.54
2023-04-02T07:33:02.558Z,26.95
2023-04-02T07:34:02.404Z,25.00
2023-04-02T07:35:02.417Z,25.00
2023-04-02T07:36:02.437Z,25.00
2023-04-02T07:37:02.367Z,24.11
2023-04-02T07:38:02.378Z,25.08
2023-04-02T07:39:02.342Z,19.15
2023-04-02T07:40:02.310Z,9.40
2023-04-02T07:41:02.277Z,4.49
2023-04-02T07:42:02.278Z,2.86
2023-04-02T07:43:02.297Z,25.08
2023-04-02T07:44:02.218Z,25.00
2023-04-02T07:45:04.635Z,25.09
2023-04-02T07:46:02.179Z,22.07
2023-04-02T07:47:02.220Z,8.20
2023-04-02T07:48:02.181Z,7.94
2023-04-02T07:49:02.137Z,0.00
2023-04-02T07:50:02.090Z,0.00
2023-04-02T07:51:02.103Z,9.94
2023-04-02T07:52:02.046Z,10.18
2023-04-02T07:53:02.041Z,10.22
2023-04-02T07:54:02.033Z,3.30
2023-04-02T07:55:01.977Z,3.54
2023-04-02T07:56:01.959Z,0.00
2023-04-02T07:57:01.983Z,22.79
2023-04-02T07:58:01.928Z,25.00
2023-04-02T07:59:01.902Z,24.03
2023-04-02T08:00:01.904Z,24.29
2023-04-02T08:01:01.881Z,21.13
2023-04-02T08:02:01.910Z,17.95
2023-04-02T08:03:01.868Z,14.21
2023-04-02T08:04:01.851Z,0.00
2023-04-02T08:05:01.816Z,0.00
2023-04-02T08:06:01.812Z,6.23
2023-04-02T08:07:01.758Z,42.69
2023-04-02T08:08:01.743Z,31.51
2023-04-02T08:09:01.750Z,31.67
2023-04-02T08:10:01.799Z,25.00
2023-04-02T08:11:01.763Z,32.90
2023-04-02T08:12:01.788Z,26.36
2023-04-02T08:13:01.799Z,23.79
2023-04-02T08:14:01.896Z,49.80
2023-04-02T08:15:01.931Z,35.41
2023-04-02T08:16:01.962Z,26.16
2023-04-02T08:17:02.161Z,30.95
2023-04-02T08:18:02.097Z,25.00
2023-04-02T08:19:02.096Z,27.65
2023-04-02T08:20:02.126Z,40.50
2023-04-02T08:21:02.172Z,30.14
2023-04-02T08:22:02.181Z,25.69
2023-04-02T08:23:02.206Z,23.80
2023-04-02T08:24:02.257Z,43.24
2023-04-02T08:25:02.295Z,37.24
2023-04-02T08:26:02.317Z,40.55
2023-04-02T08:27:02.365Z,35.24
2023-04-02T08:28:02.430Z,32.09
2023-04-02T08:29:02.436Z,28.03
2023-04-02T08:30:02.410Z,28.66
2023-04-02T08:31:02.458Z,29.62
2023-04-02T08:32:02.388Z,28.62
2023-04-02T08:33:02.376Z,28.59
2023-04-02T08:34:02.315Z,32.59
2023-04-02T08:35:02.292Z,41.88
2023-04-02T08:36:02.317Z,40.40
2023-04-02T08:37:02.256Z,27.45
2023-04-02T08:38:02.236Z,25.00
2023-04-02T08:39:02.210Z,25.00
2023-04-02T08:40:02.268Z,25.00
2023-04-02T08:41:02.219Z,26.46
2023-04-02T08:42:02.287Z,31.72
2023-04-02T08:43:02.314Z,38.28
2023-04-02T08:44:02.363Z,45.93
2023-04-02T08:45:08.066Z,52.60
2023-04-02T08:46:03.417Z,52.81
2023-04-02T08:47:02.362Z,54.15
2023-04-02T08:48:02.376Z,60.90
2023-04-02T08:49:02.302Z,72.56
2023-04-02T08:50:02.261Z,96.35
2023-04-02T08:51:02.240Z,108.86
2023-04-02T08:52:02.225Z,119.02
2023-04-02T08:53:02.190Z,124.45
2023-04-02T08:54:02.178Z,124.95
2023-04-02T08:55:02.154Z,127.56
2023-04-02T08:56:02.258Z,134.34
2023-04-02T08:57:02.163Z,147.95
2023-04-02T08:58:02.085Z,171.34
2023-04-02T08:59:02.052Z,183.68
2023-04-02T09:00:02.008Z,187.46
2023-04-02T09:01:02.011Z,195.53
2023-04-02T09:02:02.172Z,201.73
2023-04-02T09:03:01.985Z,209.20
2023-04-02T09:04:01.937Z,216.35
2023-04-02T09:05:01.969Z,225.16
2023-04-02T09:06:01.931Z,225.59
2023-04-02T09:07:01.914Z,225.91
2023-04-02T09:08:01.877Z,228.97
2023-04-02T09:09:01.844Z,235.50
2023-04-02T09:10:01.838Z,247.52
2023-04-02T09:11:01.807Z,270.00
2023-04-02T09:12:01.786Z,249.34
2023-04-02T09:13:01.749Z,248.49
2023-04-02T09:14:01.728Z,250.00
2023-04-02T09:15:01.732Z,250.00
2023-04-02T09:16:01.698Z,249.73
2023-04-02T09:17:01.664Z,248.53
2023-04-02T09:18:01.700Z,248.05
2023-04-02T09:19:01.728Z,248.59
2023-04-02T09:20:01.770Z,250.00
2023-04-02T09:21:01.844Z,250.00
2023-04-02T09:22:01.841Z,249.34
2023-04-02T09:23:01.934Z,250.00
2023-04-02T09:24:03.911Z,250.00
2023-04-02T09:25:01.923Z,248.93
2023-04-02T09:26:04.878Z,248.73
2023-04-02T09:27:01.920Z,249.28
2023-04-02T09:28:01.904Z,248.87
2023-04-02T09:29:01.915Z,249.74
2023-04-02T09:30:01.875Z,250.00
2023-04-02T09:31:01.922Z,249.17
2023-04-02T09:32:01.931Z,250.00
2023-04-02T09:33:01.851Z,249.41
2023-04-02T09:34:01.775Z,250.00
2023-04-02T09:35:03.102Z,249.05
2023-04-02T09:36:01.718Z,249.23
2023-04-02T09:37:01.694Z,249.89
2023-04-02T09:38:01.656Z,251.82
2023-04-02T09:39:01.629Z,254.35
2023-04-02T09:40:01.634Z,258.88
2023-04-02T09:41:01.642Z,249.58
2023-04-02T09:42:05.721Z,249.84
2023-04-02T09:43:01.531Z,250.01
2023-04-02T09:44:01.525Z,250.47
2023-04-02T09:45:01.499Z,251.88
2023-04-02T09:46:01.462Z,250.17
2023-04-02T09:47:01.568Z,251.13
2023-04-02T09:48:01.448Z,253.05
2023-04-02T09:49:01.516Z,256.14
2023-04-02T09:50:01.406Z,261.56
2023-04-02T09:51:01.337Z,249.32
2023-04-02T09:52:01.309Z,249.54
2023-04-02T09:53:01.306Z,249.96
2023-04-02T09:54:01.290Z,251.11
2023-04-02T09:55:01.246Z,253.89
2023-04-02T09:56:01.210Z,256.04
2023-04-02T09:57:01.180Z,249.63
2023-04-02T09:58:02.106Z,250.00
2023-04-02T09:59:01.118Z,249.48
2023-04-02T10:00:01.099Z,248.25
2023-04-02T10:01:01.104Z,249.68
2023-04-02T10:02:01.014Z,248.83
2023-04-02T10:03:01.034Z,249.86
2023-04-02T10:04:01.032Z,249.67
2023-04-02T10:05:00.976Z,243.37
2023-04-02T10:06:00.995Z,232.17
2023-04-02T10:07:01.018Z,230.23
2023-04-02T10:08:01.008Z,231.15
2023-04-02T10:09:01.019Z,225.67
2023-04-02T10:10:01.018Z,224.70
2023-04-02T10:11:01.028Z,217.58
2023-04-02T10:12:01.028Z,221.22
2023-04-02T10:13:01.041Z,219.55
2023-04-02T10:14:01.034Z,219.20
2023-04-02T10:15:01.079Z,215.65
2023-04-02T10:16:01.069Z,218.42
2023-04-02T10:17:01.177Z,219.99
2023-04-02T10:18:01.128Z,217.47
2023-04-02T10:19:01.070Z,216.85
2023-04-02T10:20:01.079Z,220.83
2023-04-02T10:21:01.073Z,217.75
2023-04-02T10:22:01.088Z,215.01
2023-04-02T10:23:01.104Z,210.82
2023-04-02T10:24:01.073Z,210.94
2023-04-02T10:25:01.049Z,211.39
2023-04-02T10:26:00.984Z,208.19
2023-04-02T10:27:00.948Z,213.13
2023-04-02T10:28:00.926Z,213.30
2023-04-02T10:29:00.886Z,209.87
2023-04-02T10:30:00.860Z,208.98
2023-04-02T10:31:00.846Z,207.53
2023-04-02T10:32:00.793Z,209.14
2023-04-02T10:33:00.794Z,203.31
2023-04-02T10:34:00.725Z,206.40
2023-04-02T10:35:00.701Z,199.21
2023-04-02T10:36:00.660Z,202.59
2023-04-02T10:37:00.628Z,205.59
2023-04-02T10:38:00.644Z,213.67
2023-04-02T10:39:00.637Z,215.86
2023-04-02T10:40:00.652Z,219.60
2023-04-02T10:41:00.671Z,220.99
2023-04-02T10:42:00.678Z,222.43
2023-04-02T10:43:00.666Z,223.43
2023-04-02T10:44:12.675Z,228.81
2023-04-02T10:45:01.665Z,228.98
2023-04-02T10:46:00.637Z,229.61
2023-04-02T10:47:00.576Z,231.87
2023-04-02T10:48:00.615Z,233.69
2023-04-02T10:49:00.511Z,241.49
2023-04-02T10:50:00.479Z,242.22
2023-04-02T10:51:00.452Z,236.05
2023-04-02T10:52:00.417Z,233.06
2023-04-02T10:53:00.388Z,234.43
2023-04-02T10:54:00.351Z,223.65
2023-04-02T10:55:00.328Z,223.57
2023-04-02T10:56:00.283Z,220.06
2023-04-02T10:57:00.306Z,219.78
2023-04-02T10:58:00.229Z,215.96
2023-04-02T10:59:00.241Z,213.14
2023-04-02T11:00:00.265Z,216.01
2023-04-02T11:01:00.240Z,217.35
2023-04-02T11:02:00.332Z,218.46
2023-04-02T11:03:00.331Z,218.11
2023-04-02T11:04:00.272Z,213.91
2023-04-02T11:05:01.835Z,214.00
2023-04-02T11:06:00.327Z,211.79
2023-04-02T11:07:11.302Z,214.07
2023-04-02T11:08:01.287Z,214.13
2023-04-02T11:09:00.228Z,214.21
2023-04-02T11:10:00.291Z,214.41
2023-04-02T11:11:00.222Z,213.15
2023-04-02T11:12:00.138Z,213.70
2023-04-02T11:13:00.107Z,213.35
2023-04-02T11:14:00.093Z,212.79
2023-04-02T11:15:00.132Z,208.03
2023-04-02T11:16:00.057Z,207.70
2023-04-02T11:16:59.998Z,205.93
2023-04-02T11:18:00.070Z,210.10
2023-04-02T11:18:59.964Z,211.17
2023-04-02T11:19:59.933Z,212.19
2023-04-02T11:20:59.897Z,210.52
2023-04-02T11:22:01.879Z,209.63
2023-04-02T11:22:59.875Z,211.94
2023-04-02T11:23:59.960Z,217.30
2023-04-02T11:24:59.810Z,221.57
2023-04-02T11:25:59.786Z,222.40
2023-04-02T11:26:59.763Z,220.53
2023-04-02T11:27:59.718Z,221.18
2023-04-02T11:28:59.712Z,227.55
2023-04-02T11:29:59.688Z,230.50
2023-04-02T11:30:59.689Z,232.72
2023-04-02T11:31:59.638Z,233.62
2023-04-02T11:32:59.612Z,231.85
2023-04-02T11:33:59.572Z,228.25
2023-04-02T11:35:06.673Z,225.58
2023-04-02T11:36:00.562Z,225.59
2023-04-02T11:36:59.473Z,225.65
2023-04-02T11:37:59.447Z,225.61
2023-04-02T11:39:07.360Z,219.66
2023-04-02T11:40:00.477Z,215.63
2023-04-02T11:40:59.404Z,215.45
2023-04-02T11:41:59.334Z,213.82
2023-04-02T11:42:59.319Z,210.58
2023-04-02T11:43:59.272Z,213.93
2023-04-02T11:44:59.251Z,210.92
2023-04-02T11:45:59.249Z,210.31
2023-04-02T11:46:59.286Z,213.03
2023-04-02T11:47:59.198Z,218.26
2023-04-02T11:48:59.155Z,214.45
2023-04-02T11:49:59.112Z,218.46
2023-04-02T11:50:59.113Z,219.08
2023-04-02T11:52:10.869Z,215.24
2023-04-02T11:53:00.045Z,215.38
2023-04-02T11:53:59.015Z,214.80
2023-04-02T11:54:58.996Z,215.53
2023-04-02T11:55:58.985Z,216.80
2023-04-02T11:56:59.006Z,215.28
2023-04-02T11:57:58.916Z,214.44
2023-04-02T11:58:58.889Z,214.80
2023-04-02T11:59:58.881Z,214.49
2023-04-02T12:00:58.851Z,218.19
2023-04-02T12:01:58.884Z,217.87
2023-04-02T12:02:58.808Z,218.66
2023-04-02T12:03:58.814Z,216.04
2023-04-02T12:04:58.844Z,213.82
2023-04-02T12:05:58.834Z,216.79
2023-04-02T12:06:58.835Z,215.25
2023-04-02T12:07:58.867Z,217.90
2023-04-02T12:08:58.873Z,217.61
2023-04-02T12:09:58.929Z,219.80
2023-04-02T12:10:58.936Z,218.79
2023-04-02T12:11:59.004Z,222.15
2023-04-02T12:12:59.041Z,224.70
2023-04-02T12:13:58.978Z,221.62
2023-04-02T12:14:59.018Z,224.80
2023-04-02T12:15:59.018Z,221.16
2023-04-02T12:16:59.078Z,223.90
2023-04-02T12:17:59.099Z,221.84
2023-04-02T12:18:59.136Z,216.58
2023-04-02T12:19:59.129Z,216.79
2023-04-02T12:20:59.156Z,218.90
2023-04-02T12:21:59.181Z,220.12
2023-04-02T12:22:59.163Z,213.27
2023-04-02T12:23:59.198Z,211.71
2023-04-02T12:24:59.264Z,217.66
2023-04-02T12:25:59.245Z,224.04
2023-04-02T12:26:59.273Z,224.87
2023-04-02T12:27:59.275Z,215.55
2023-04-02T12:28:59.307Z,210.77
2023-04-02T12:29:59.308Z,214.87
2023-04-02T12:30:59.356Z,214.06
2023-04-02T12:31:59.368Z,215.11
2023-04-02T12:32:59.469Z,212.89
2023-04-02T12:33:59.402Z,209.79
2023-04-02T12:34:59.485Z,208.08
2023-04-02T12:35:59.479Z,207.20
2023-04-02T12:36:59.479Z,210.87
2023-04-02T12:37:59.480Z,212.18
2023-04-02T12:38:59.507Z,212.32
2023-04-02T12:39:59.522Z,212.56
2023-04-02T12:40:59.590Z,208.20
2023-04-02T12:41:59.618Z,206.77
2023-04-02T12:42:59.580Z,210.13
2023-04-02T12:43:59.593Z,212.01